createdAt,value
2019-03-28T00:01:08.093Z,100098.05
2019-03-28T00:03:35.207Z,100096.36
2019-03-28T00:06:02.343Z,100101.20
2019-03-28T00:08:30.429Z,100104.66
2019-03-28T00:10:57.840Z,100104.21
2019-03-28T00:13:25.202Z,100092.88
2019-03-28T00:15:53.243Z,100092.88
2019-03-28T00:18:20.320Z,100092.38
2019-03-28T00:20:47.382Z,100094.61
2019-03-28T00:23:37.361Z,100089.33
2019-03-28T00:26:04.510Z,100094.09
2019-03-28T00:28:34.792Z,100095.81
2019-03-28T00:31:01.904Z,100098.02
2019-03-28T00:33:29.009Z,100098.43
2019-03-28T00:35:56.136Z,100100.63
2019-03-28T00:38:23.296Z,100096.73
2019-03-28T00:40:50.484Z,100098.05
2019-03-28T00:43:17.525Z,100100.20
2019-03-28T00:45:45.533Z,100106.72
2019-03-28T00:48:12.803Z,100113.24
2019-03-28T00:50:39.810Z,100105.31
2019-03-28T00:53:06.979Z,100102.66
2019-03-28T00:56:05.625Z,100110.86
2019-03-28T00:58:34.267Z,100110.73
2019-03-28T01:01:01.643Z,100107.59
2019-03-28T01:03:29.039Z,100101.84
2019-03-28T01:05:56.351Z,100104.41
2019-03-28T01:08:24.118Z,100104.30
2019-03-28T01:10:51.162Z,100105.13
2019-03-28T01:13:20.358Z,100102.38
2019-03-28T01:15:47.417Z,100111.07
2019-03-28T01:18:15.558Z,100109.28
2019-03-28T01:20:42.686Z,100108.79
2019-03-28T01:23:09.773Z,100112.18
2019-03-28T01:25:36.887Z,100105.59
2019-03-28T01:28:04.009Z,100100.67
2019-03-28T01:30:31.155Z,100105.77
2019-03-28T01:32:58.391Z,100100.05
2019-03-28T01:35:28.783Z,100097.84
2019-03-28T01:37:55.981Z,100101.63
2019-03-28T01:40:23.021Z,100093.77
2019-03-28T01:42:51.247Z,100096.28
2019-03-28T01:45:18.363Z,100090.07
2019-03-28T01:47:45.455Z,100090.05
2019-03-28T01:50:12.833Z,100085.70
2019-03-28T01:52:39.940Z,100080.46
2019-03-28T01:55:07.607Z,100083.09
2019-03-28T01:57:34.978Z,100085.25
2019-03-28T02:00:02.228Z,100082.59
2019-03-28T02:02:29.290Z,100082.52
2019-03-28T02:04:56.743Z,100079.48
2019-03-28T02:07:23.803Z,100085.13
2019-03-28T02:09:50.874Z,100086.52
2019-03-28T02:12:18.669Z,100083.52
2019-03-28T02:14:45.751Z,100084.42
2019-03-28T02:17:12.952Z,100084.13
2019-03-28T02:19:40.052Z,100090.28
2019-03-28T02:22:08.225Z,100087.72
2019-03-28T02:24:35.326Z,100083.39
2019-03-28T02:27:02.386Z,100077.83
2019-03-28T02:29:29.458Z,100077.83
2019-03-28T02:31:56.493Z,100080.86
2019-03-28T02:34:24.373Z,100083.48
2019-03-28T02:36:51.416Z,100076.56
2019-03-28T02:39:18.957Z,100078.70
2019-03-28T02:41:46.475Z,100080.05
2019-03-28T02:44:13.512Z,100080.05
2019-03-28T02:46:40.620Z,100075.81
2019-03-28T02:49:07.956Z,100077.56
2019-03-28T02:51:35.075Z,100070.61
2019-03-28T02:54:03.268Z,100070.18
2019-03-28T02:56:30.290Z,100063.20
2019-03-28T02:58:57.394Z,100070.18
2019-03-28T03:01:24.696Z,100070.16
2019-03-28T03:03:52.197Z,100081.08
2019-03-28T03:06:19.438Z,100071.46
2019-03-28T03:08:46.540Z,100081.08
2019-03-28T03:11:13.803Z,100078.47
2019-03-28T03:13:40.861Z,100074.50
2019-03-28T03:16:09.326Z,100079.28
2019-03-28T03:18:36.423Z,100090.60
2019-03-28T03:21:03.631Z,100081.89
2019-03-28T03:23:30.749Z,100085.40
2019-03-28T03:25:59.349Z,100081.89
2019-03-28T03:28:26.735Z,100089.24
2019-03-28T03:30:53.794Z,100081.81
2019-03-28T03:33:20.990Z,100081.31
2019-03-28T03:35:48.359Z,100080.46
2019-03-28T03:38:16.013Z,100086.13
2019-03-28T03:40:43.199Z,100087.89
2019-03-28T03:43:10.199Z,100088.36
2019-03-28T03:45:37.288Z,100088.79
2019-03-28T03:48:04.346Z,100091.80
2019-03-28T03:50:31.508Z,100095.68
2019-03-28T03:52:58.674Z,100096.00
2019-03-28T03:55:26.115Z,100100.30
2019-03-28T03:57:53.783Z,100109.02
2019-03-28T04:00:29.693Z,100100.73
2019-03-28T04:02:56.903Z,100104.22
2019-03-28T04:05:23.982Z,100106.75
2019-03-28T04:07:51.129Z,100116.31
2019-03-28T04:10:18.215Z,100112.80
2019-03-28T04:12:45.278Z,100115.97
2019-03-28T04:15:12.595Z,100119.88
2019-03-28T04:17:39.772Z,100124.70
2019-03-28T04:20:06.849Z,100126.89
2019-03-28T04:22:33.935Z,100130.35
2019-03-28T04:25:01.003Z,100126.89
2019-03-28T04:27:33.263Z,100129.05
2019-03-28T04:30:00.564Z,100131.66
2019-03-28T04:32:28.408Z,100134.70
2019-03-28T04:34:55.473Z,100136.88
2019-03-28T04:37:22.554Z,100132.43
2019-03-28T04:39:49.605Z,100141.11
2019-03-28T04:42:16.668Z,100138.91
2019-03-28T04:44:43.719Z,100137.20
2019-03-28T04:47:10.964Z,100143.70
2019-03-28T04:49:38.336Z,100137.06
2019-03-28T04:52:05.744Z,100137.60
2019-03-28T04:54:32.799Z,100136.27
2019-03-28T04:56:59.905Z,100131.91
2019-03-28T04:59:26.957Z,100140.61
2019-03-28T05:02:03.433Z,100146.72
2019-03-28T05:04:29.053Z,100142.29
2019-03-28T05:06:57.723Z,100146.69
2019-03-28T05:09:25.359Z,100143.14
2019-03-28T05:11:52.921Z,100145.33
2019-03-28T05:14:20.032Z,100144.90
2019-03-28T05:16:47.137Z,100150.13
2019-03-28T05:19:14.225Z,100144.08
2019-03-28T05:21:41.461Z,100143.23
2019-03-28T05:24:08.561Z,100144.18
2019-03-28T05:26:35.602Z,100151.11
2019-03-28T05:29:02.739Z,100153.75
2019-03-28T05:31:54.020Z,100160.78
2019-03-28T05:34:21.585Z,100149.13
2019-03-28T05:36:51.914Z,100157.77
2019-03-28T05:39:17.849Z,100159.48
2019-03-28T05:41:46.948Z,100161.71
2019-03-28T05:44:14.191Z,100161.28
2019-03-28T05:46:41.393Z,100161.76
2019-03-28T05:49:08.582Z,100166.55
2019-03-28T05:51:37.728Z,100162.70
2019-03-28T05:54:04.969Z,100169.25
2019-03-28T05:56:32.059Z,100172.77
2019-03-28T05:59:10.201Z,100179.34
2019-03-28T06:01:28.335Z,100176.73
2019-03-28T06:03:56.051Z,100174.63
2019-03-28T06:06:23.176Z,100173.35
2019-03-28T06:08:50.251Z,100175.11
2019-03-28T06:11:26.262Z,100171.23
2019-03-28T06:13:53.304Z,100178.75
2019-03-28T06:16:20.409Z,100180.91
2019-03-28T06:18:47.491Z,100177.98
2019-03-28T06:21:14.640Z,100179.37
2019-03-28T06:23:42.806Z,100178.58
2019-03-28T06:26:10.003Z,100181.71
2019-03-28T06:28:39.497Z,100193.14
2019-03-28T06:31:06.563Z,100192.33
2019-03-28T06:33:34.472Z,100185.43
2019-03-28T06:36:04.070Z,100186.37
2019-03-28T06:38:31.331Z,100187.25
2019-03-28T06:40:58.429Z,100185.52
2019-03-28T06:43:25.655Z,100194.30
2019-03-28T06:45:52.844Z,100183.88
2019-03-28T06:48:22.422Z,100187.55
2019-03-28T06:51:01.551Z,100187.80
2019-03-28T06:53:29.664Z,100185.88
2019-03-28T06:55:56.895Z,100184.84
2019-03-28T06:58:24.099Z,100186.41
2019-03-28T07:00:51.520Z,100187.88
2019-03-28T07:03:18.614Z,100187.30
2019-03-28T07:05:45.780Z,100188.40
2019-03-28T07:08:12.868Z,100185.12
2019-03-28T07:10:40.199Z,100181.00
2019-03-28T07:13:07.505Z,100179.72
2019-03-28T07:15:36.864Z,100189.66
2019-03-28T07:18:04.155Z,100187.44
2019-03-28T07:20:31.674Z,100192.98
2019-03-28T07:23:00.110Z,100198.60
2019-03-28T07:25:27.635Z,100205.88
2019-03-28T07:27:55.032Z,100198.78
2019-03-28T07:30:22.400Z,100203.06
2019-03-28T07:32:50.177Z,100202.91
2019-03-28T07:35:18.084Z,100208.91
2019-03-28T07:37:46.015Z,100207.28
2019-03-28T07:40:13.706Z,100211.31
2019-03-28T07:42:40.845Z,100201.88
2019-03-28T07:45:09.366Z,100203.72
2019-03-28T07:47:37.222Z,100206.97
2019-03-28T07:50:05.311Z,100209.65
2019-03-28T07:52:33.888Z,100206.08
2019-03-28T07:55:02.254Z,100213.14
2019-03-28T07:57:29.651Z,100204.50
2019-03-28T08:00:03.993Z,100205.27
2019-03-28T08:02:26.267Z,100206.08
2019-03-28T08:04:53.482Z,100207.02
2019-03-28T08:07:21.753Z,100206.23
2019-03-28T08:09:48.925Z,100210.09
2019-03-28T08:12:22.398Z,100212.36
2019-03-28T08:14:46.044Z,100207.23
2019-03-28T08:17:16.447Z,100208.09
2019-03-28T08:19:44.452Z,100203.02
2019-03-28T08:22:12.240Z,100207.05
2019-03-28T08:24:40.357Z,100212.75
2019-03-28T08:27:07.587Z,100209.61
2019-03-28T08:29:34.717Z,100211.34
2019-03-28T08:32:07.521Z,100213.27
2019-03-28T08:34:34.928Z,100212.30
2019-03-28T08:37:02.693Z,100218.41
2019-03-28T08:39:30.916Z,100216.67
2019-03-28T08:41:58.265Z,100216.27
2019-03-28T08:44:25.397Z,100210.20
2019-03-28T08:46:52.783Z,100210.31
2019-03-28T08:49:21.870Z,100207.41
2019-03-28T08:51:48.929Z,100208.91
2019-03-28T08:54:16.062Z,100206.50
2019-03-28T08:56:43.931Z,100208.74
2019-03-28T08:59:11.416Z,100209.61
2019-03-28T09:01:39.016Z,100207.06
2019-03-28T09:04:06.249Z,100210.13
2019-03-28T09:06:34.873Z,100203.60
2019-03-28T09:09:02.113Z,100203.34
2019-03-28T09:11:29.230Z,100198.15
2019-03-28T09:13:57.219Z,100204.11
2019-03-28T09:16:24.575Z,100204.98
2019-03-28T09:18:52.128Z,100202.35
2019-03-28T09:21:19.212Z,100200.78
2019-03-28T09:23:46.396Z,100204.01
2019-03-28T09:26:15.211Z,100206.27
2019-03-28T09:28:42.375Z,100207.03
2019-03-28T09:31:19.687Z,100199.46
2019-03-28T09:33:40.703Z,100203.05
2019-03-28T09:36:08.179Z,100202.69
2019-03-28T09:38:35.401Z,100200.50
2019-03-28T09:41:03.857Z,100195.72
2019-03-28T09:43:31.683Z,100199.67
2019-03-28T09:46:00.507Z,100198.79
2019-03-28T09:48:28.670Z,100203.13
2019-03-28T09:50:55.799Z,100196.48
2019-03-28T09:53:23.391Z,100199.98
2019-03-28T09:55:51.004Z,100198.75
2019-03-28T09:58:19.291Z,100194.88
2019-03-28T10:01:01.569Z,100196.23
2019-03-28T10:03:17.333Z,100200.17
2019-03-28T10:05:45.555Z,100200.98
2019-03-28T10:08:13.413Z,100197.52
2019-03-28T10:10:40.776Z,100201.86
2019-03-28T10:13:08.021Z,100201.92
2019-03-28T10:15:37.027Z,100194.95
2019-03-28T10:18:05.029Z,100198.48
2019-03-28T10:20:32.421Z,100195.35
2019-03-28T10:23:01.438Z,100193.68
2019-03-28T10:25:28.721Z,100197.20
2019-03-28T10:27:58.776Z,100195.02
2019-03-28T10:30:39.771Z,100191.98
2019-03-28T10:33:07.749Z,100185.41
2019-03-28T10:35:37.358Z,100188.94
2019-03-28T10:38:05.051Z,100192.03
2019-03-28T10:40:33.597Z,100189.37
2019-03-28T10:43:00.892Z,100178.00
2019-03-28T10:45:28.268Z,100184.14
2019-03-28T10:47:59.984Z,100189.84
2019-03-28T10:50:40.218Z,100185.00
2019-03-28T10:52:56.354Z,100180.97
2019-03-28T10:55:25.769Z,100181.48
2019-03-28T10:57:53.378Z,100188.89
2019-03-28T11:00:24.234Z,100189.22
2019-03-28T11:02:50.890Z,100178.97
2019-03-28T11:05:18.102Z,100172.75
2019-03-28T11:07:45.259Z,100170.52
2019-03-28T11:10:12.831Z,100175.01
2019-03-28T11:12:39.950Z,100174.15
2019-03-28T11:15:07.631Z,100174.02
2019-03-28T11:17:34.749Z,100178.92
2019-03-28T11:20:02.784Z,100176.31
2019-03-28T11:22:29.921Z,100175.44
2019-03-28T11:24:57.106Z,100171.45
2019-03-28T11:27:24.228Z,100171.52
2019-03-28T11:29:51.387Z,100168.37
2019-03-28T11:32:20.888Z,100169.66
2019-03-28T11:34:48.230Z,100164.71
2019-03-28T11:37:25.901Z,100161.18
2019-03-28T11:39:44.266Z,100160.25
2019-03-28T11:42:11.339Z,100165.36
2019-03-28T11:44:38.701Z,100160.28
2019-03-28T11:47:05.793Z,100169.51
2019-03-28T11:49:32.892Z,100164.33
2019-03-28T11:51:59.916Z,100162.81
2019-03-28T11:54:28.127Z,100164.77
2019-03-28T11:56:55.196Z,100163.34
2019-03-28T11:59:22.275Z,100168.00
2019-03-28T12:01:59.445Z,100163.10
2019-03-28T12:04:18.611Z,100163.81
2019-03-28T12:06:48.800Z,100164.36
2019-03-28T12:09:14.987Z,100166.64
2019-03-28T12:11:42.435Z,100168.42
2019-03-28T12:14:09.969Z,100165.80
2019-03-28T12:16:37.454Z,100167.94
2019-03-28T12:19:04.631Z,100169.98
2019-03-28T12:21:31.854Z,100165.63
2019-03-28T12:23:59.033Z,100161.91
2019-03-28T12:26:26.208Z,100166.73
2019-03-28T12:28:53.299Z,100172.96
2019-03-28T12:31:21.380Z,100166.80
2019-03-28T12:33:48.758Z,100168.53
2019-03-28T12:36:15.860Z,100156.23
2019-03-28T12:38:43.049Z,100163.63
2019-03-28T12:41:10.206Z,100161.39
2019-03-28T12:43:39.230Z,100153.95
2019-03-28T12:46:06.439Z,100154.41
2019-03-28T12:48:33.536Z,100159.66
2019-03-28T12:51:01.018Z,100156.10
2019-03-28T12:53:28.451Z,100156.44
2019-03-28T12:55:56.804Z,100151.92
2019-03-28T12:58:24.018Z,100149.69
2019-03-28T13:00:51.391Z,100151.91
2019-03-28T13:03:18.770Z,100151.84
2019-03-28T13:05:47.503Z,100153.94
2019-03-28T13:08:14.721Z,100150.34
2019-03-28T13:10:41.818Z,100147.94
2019-03-28T13:13:08.939Z,100147.89
2019-03-28T13:15:36.050Z,100150.60
2019-03-28T13:18:03.774Z,100149.91
2019-03-28T13:20:30.949Z,100143.62
2019-03-28T13:22:58.087Z,100140.70
2019-03-28T13:25:25.189Z,100135.78
2019-03-28T13:27:52.469Z,100144.66
2019-03-28T13:30:21.213Z,100141.61
2019-03-28T13:32:48.460Z,100144.69
2019-03-28T13:35:15.700Z,100148.71
2019-03-28T13:37:43.027Z,100148.38
2019-03-28T13:40:10.280Z,100146.85
2019-03-28T13:42:38.798Z,100147.78
2019-03-28T13:45:06.992Z,100144.78
2019-03-28T13:47:35.383Z,100146.14
2019-03-28T13:50:03.172Z,100141.26
2019-03-28T13:52:30.297Z,100133.28
2019-03-28T13:54:58.386Z,100143.02
2019-03-28T13:57:25.987Z,100135.98
2019-03-28T13:59:53.034Z,100135.87
2019-03-28T14:02:20.148Z,100140.24
2019-03-28T14:04:47.227Z,100138.11
2019-03-28T14:07:17.071Z,100136.90
2019-03-28T14:09:43.592Z,100143.55
2019-03-28T14:12:10.888Z,100144.01
2019-03-28T14:14:43.934Z,100148.45
2019-03-28T14:17:11.844Z,100146.76
2019-03-28T14:19:39.194Z,100149.38
2019-03-28T14:22:06.611Z,100142.73
2019-03-28T14:24:34.142Z,100135.69
2019-03-28T14:27:01.212Z,100139.09
2019-03-28T14:29:29.901Z,100134.59
2019-03-28T14:31:59.834Z,100134.96
2019-03-28T14:34:26.604Z,100131.78
2019-03-28T14:36:53.931Z,100130.44
2019-03-28T14:39:21.216Z,100129.59
2019-03-28T14:41:49.038Z,100135.79
2019-03-28T14:44:16.330Z,100133.59
2019-03-28T14:46:44.521Z,100128.31
2019-03-28T14:49:11.786Z,100131.50
2019-03-28T14:51:39.000Z,100135.93
2019-03-28T14:54:07.388Z,100135.04
2019-03-28T14:56:34.585Z,100136.81
2019-03-28T14:59:02.665Z,100133.28
2019-03-28T15:01:29.837Z,100134.66
2019-03-28T15:03:57.079Z,100137.78
2019-03-28T15:06:24.694Z,100133.40
2019-03-28T15:08:52.129Z,100134.33
2019-03-28T15:11:21.350Z,100129.92
2019-03-28T15:13:48.852Z,100132.58
2019-03-28T15:16:17.314Z,100135.25
2019-03-28T15:18:44.789Z,100134.84
2019-03-28T15:21:11.978Z,100139.25
2019-03-28T15:23:40.238Z,100137.95
2019-03-28T15:26:07.480Z,100139.28
2019-03-28T15:28:34.721Z,100136.65
2019-03-28T15:31:01.831Z,100137.09
2019-03-28T15:33:38.800Z,100134.92
2019-03-28T15:35:58.305Z,100131.88
2019-03-28T15:38:25.522Z,100133.20
2019-03-28T15:40:53.193Z,100132.32
2019-03-28T15:43:20.420Z,100134.50
2019-03-28T15:45:47.545Z,100123.97
2019-03-28T15:48:15.311Z,100134.53
2019-03-28T15:50:42.465Z,100129.23
2019-03-28T15:53:09.608Z,100130.13
2019-03-28T15:55:36.675Z,100130.56
2019-03-28T15:58:03.876Z,100133.62
2019-03-28T16:00:34.204Z,100125.30
2019-03-28T16:03:01.603Z,100125.72
2019-03-28T16:05:29.507Z,100125.74
2019-03-28T16:07:59.344Z,100127.92
2019-03-28T16:10:26.538Z,100127.03
2019-03-28T16:12:54.092Z,100126.20
2019-03-28T16:15:22.462Z,100124.88
2019-03-28T16:17:49.594Z,100120.04
2019-03-28T16:20:17.642Z,100121.39
2019-03-28T16:22:54.662Z,100115.25
2019-03-28T16:25:21.795Z,100125.35
2019-03-28T16:27:48.885Z,100126.20
2019-03-28T16:30:21.793Z,100126.66
2019-03-28T16:32:48.844Z,100129.27
2019-03-28T16:35:16.154Z,100126.66
2019-03-28T16:37:43.209Z,100127.54
2019-03-28T16:40:10.658Z,100128.40
2019-03-28T16:42:37.721Z,100128.86
2019-03-28T16:45:06.118Z,100130.15
2019-03-28T16:47:33.325Z,100127.08
2019-03-28T16:50:00.492Z,100124.01
2019-03-28T16:52:28.252Z,100119.65
2019-03-28T16:54:55.338Z,100125.79
2019-03-28T16:57:22.441Z,100127.97
2019-03-28T16:59:49.531Z,100130.15
2019-03-28T17:02:16.625Z,100138.05
2019-03-28T17:04:43.726Z,100130.12
2019-03-28T17:07:10.887Z,100133.61
2019-03-28T17:09:39.239Z,100136.69
2019-03-28T17:12:06.719Z,100134.00
2019-03-28T17:14:33.969Z,100134.44
2019-03-28T17:17:01.030Z,100143.64
2019-03-28T17:19:28.135Z,100136.17
2019-03-28T17:21:55.249Z,100138.80
2019-03-28T17:24:22.372Z,100141.89
2019-03-28T17:26:49.703Z,100149.34
2019-03-28T17:29:16.804Z,100144.97
2019-03-28T17:31:44.965Z,100147.16
2019-03-28T17:34:12.306Z,100152.37
2019-03-28T17:36:41.766Z,100144.05
2019-03-28T17:39:08.958Z,100153.29
2019-03-28T17:41:37.910Z,100156.33
2019-03-28T17:44:05.040Z,100153.70
2019-03-28T17:46:35.129Z,100151.94
2019-03-28T17:49:02.622Z,100164.65
2019-03-28T17:51:31.054Z,100161.14
2019-03-28T17:53:59.433Z,100155.09
2019-03-28T17:56:37.874Z,100148.56
2019-03-28T17:59:07.155Z,100148.58
2019-03-28T18:01:34.630Z,100149.47
2019-03-28T18:04:01.699Z,100149.04
2019-03-28T18:06:28.892Z,100156.05
2019-03-28T18:08:56.167Z,100160.86
2019-03-28T18:11:23.211Z,100159.56
2019-03-28T18:13:51.302Z,100163.05
2019-03-28T18:16:18.584Z,100172.71
2019-03-28T18:18:47.771Z,100173.13
2019-03-28T18:21:15.094Z,100166.13
2019-03-28T18:23:42.283Z,100177.53
2019-03-28T18:26:09.561Z,100181.89
2019-03-28T18:28:37.418Z,100181.90
2019-03-28T18:31:19.640Z,100186.29
2019-03-28T18:33:47.702Z,100182.78
2019-03-28T18:36:15.073Z,100189.36
2019-03-28T18:38:42.159Z,100192.44
2019-03-28T18:41:09.526Z,100193.31
2019-03-28T18:43:36.674Z,100197.67
2019-03-28T18:46:03.973Z,100194.58
2019-03-28T18:48:36.191Z,100204.23
2019-03-28T18:50:59.984Z,100205.52
2019-03-28T18:53:27.167Z,100211.62
2019-03-28T18:55:55.779Z,100209.84
2019-03-28T18:58:23.944Z,100212.91
2019-03-28T19:00:51.176Z,100210.28
2019-03-28T19:03:18.234Z,100216.86
2019-03-28T19:05:45.513Z,100219.45
2019-03-28T19:08:13.675Z,100212.01
2019-03-28T19:10:42.033Z,100219.89
2019-03-28T19:13:09.699Z,100221.64
2019-03-28T19:15:37.215Z,100220.73
2019-03-28T19:18:04.576Z,100218.55
2019-03-28T19:20:33.290Z,100217.63
2019-03-28T19:23:00.756Z,100225.08
2019-03-28T19:25:27.955Z,100222.88
2019-03-28T19:27:57.100Z,100222.45
2019-03-28T19:30:31.831Z,100229.85
2019-03-28T19:32:59.193Z,100235.98
2019-03-28T19:35:32.869Z,100230.72
2019-03-28T19:37:56.360Z,100229.41
2019-03-28T19:40:23.679Z,100229.38
2019-03-28T19:42:50.838Z,100225.86
2019-03-28T19:45:31.509Z,100223.63
2019-03-28T19:48:08.142Z,100228.02
2019-03-28T19:50:38.467Z,100225.78
2019-03-28T19:53:05.923Z,100228.41
2019-03-28T19:55:36.148Z,100229.23
2019-03-28T19:58:05.740Z,100232.30
2019-03-28T20:00:35.664Z,100230.11
2019-03-28T20:03:07.276Z,100223.09
2019-03-28T20:05:47.665Z,100224.41
2019-03-28T20:08:15.458Z,100216.97
2019-03-28T20:10:37.639Z,100216.53
2019-03-28T20:13:06.244Z,100220.03
2019-03-28T20:15:34.003Z,100212.11
2019-03-28T20:18:01.802Z,100212.98
2019-03-28T20:20:29.410Z,100215.59
2019-03-28T20:22:58.118Z,100211.61
2019-03-28T20:25:25.756Z,100213.31
2019-03-28T20:27:57.982Z,100215.00
2019-03-28T20:30:25.743Z,100220.63
2019-03-28T20:32:57.874Z,100221.44
2019-03-28T20:35:25.124Z,100226.67
2019-03-28T20:37:53.317Z,100230.60
2019-03-28T20:40:20.669Z,100227.49
2019-03-28T20:42:47.918Z,100225.75
2019-03-28T20:45:15.823Z,100226.23
2019-03-28T20:47:43.208Z,100224.94
2019-03-28T20:50:11.509Z,100228.44
2019-03-28T20:52:38.902Z,100232.81
2019-03-28T20:55:07.575Z,100228.00
2019-03-28T20:57:36.251Z,100231.93
2019-03-28T21:00:08.676Z,100227.56
2019-03-28T21:02:36.407Z,100224.06
2019-03-28T21:05:07.211Z,100227.13
2019-03-28T21:07:36.652Z,100227.13
2019-03-28T21:10:04.174Z,100230.17
2019-03-28T21:12:31.277Z,100230.11
2019-03-28T21:14:58.883Z,100230.48
2019-03-28T21:17:32.117Z,100230.97
2019-03-28T21:20:00.037Z,100233.16
2019-03-28T21:22:31.789Z,100229.61
2019-03-28T21:24:59.443Z,100232.21
2019-03-28T21:27:27.596Z,100230.89
2019-03-28T21:29:56.748Z,100230.77
2019-03-28T21:32:23.861Z,100224.94
2019-03-28T21:34:52.106Z,100231.39
2019-03-28T21:37:26.891Z,100235.65
2019-03-28T21:39:54.081Z,100235.14
2019-03-28T21:42:21.155Z,100231.61
2019-03-28T21:44:48.866Z,100238.13
2019-03-28T21:47:16.159Z,100234.63
2019-03-28T21:49:43.252Z,100236.86
2019-03-28T21:52:10.649Z,100231.19
2019-03-28T21:54:38.509Z,100230.77
2019-03-28T21:57:05.609Z,100235.15
2019-03-28T21:59:35.470Z,100237.38
2019-03-28T22:02:05.132Z,100228.59
2019-03-28T22:04:35.062Z,100234.26
2019-03-28T22:07:05.691Z,100231.17
2019-03-28T22:09:35.457Z,100231.55
2019-03-28T22:12:04.743Z,100226.71
2019-03-28T22:14:31.781Z,100231.01
2019-03-28T22:17:00.834Z,100230.90
2019-03-28T22:19:27.944Z,100230.01
2019-03-28T22:21:56.698Z,100230.87
2019-03-28T22:24:23.738Z,100233.50
2019-03-28T22:26:50.920Z,100233.52
2019-03-28T22:29:18.052Z,100230.92
2019-03-28T22:31:45.134Z,100229.69
2019-03-28T22:34:12.164Z,100227.97
2019-03-28T22:36:39.228Z,100228.02
2019-03-28T22:39:06.790Z,100228.45
2019-03-28T22:41:33.920Z,100228.02
2019-03-28T22:44:01.022Z,100231.52
2019-03-28T22:46:28.100Z,100224.52
2019-03-28T22:48:55.173Z,100227.53
2019-03-28T22:51:22.552Z,100227.52
2019-03-28T22:53:57.727Z,100224.02
2019-03-28T22:56:24.734Z,100220.50
2019-03-28T22:58:51.796Z,100229.67
2019-03-28T23:01:21.401Z,100230.13
2019-03-28T23:03:48.571Z,100232.77
2019-03-28T23:06:15.883Z,100234.18
2019-03-28T23:08:42.979Z,100232.50
2019-03-28T23:11:10.018Z,100229.02
2019-03-28T23:13:37.551Z,100237.34
2019-03-28T23:16:04.625Z,100242.64
2019-03-28T23:18:31.795Z,100239.15
2019-03-28T23:20:59.506Z,100233.45
2019-03-28T23:23:26.614Z,100234.28
2019-03-28T23:25:59.650Z,100238.27
2019-03-28T23:28:26.712Z,100237.83
2019-03-28T23:30:54.219Z,100239.57
2019-03-28T23:33:22.038Z,100240.00
2019-03-28T23:35:53.291Z,100241.70
2019-03-28T23:38:21.217Z,100242.57
2019-03-28T23:40:48.307Z,100239.94
2019-03-28T23:43:15.440Z,100237.29
2019-03-28T23:45:42.461Z,100245.59
2019-03-28T23:48:10.938Z,100238.55
2019-03-28T23:50:37.966Z,100242.03
2019-03-28T23:53:05.737Z,100241.58
2019-03-28T23:55:32.960Z,100232.34
2019-03-28T23:58:00.923Z,100234.95
